Time;durP1;ratioP1;P1;durP2;ratioP2;P2;SDS_P1;SDS_P2;PMS_P1;PMS_P2;Temp;Humidity;BMP_temperature;BMP_pressure;BME280_temperature;BME280_humidity;BME280_pressure;Samples;Min_cycle;Max_cycle;Signal;HPM_P1;HPM_P2
2022/01/02 00:01:59;;;;;;;19.60;15.40;;;;;;;;;;5052452;28;20658;-69
2022/01/02 00:04:28;;;;;;;21.43;15.20;;;;;;;;;;5053768;28;20948;-70
2022/01/02 00:06:54;;;;;;;18.03;14.10;;;;;;;;;;5053724;28;20810;-69
2022/01/02 00:09:39;;;;;;;21.93;16.73;;;;;;;;;;5053721;28;20921;-69
2022/01/02 00:12:09;;;;;;;28.43;17.37;;;;;;;;;;5053371;28;20510;-70
2022/01/02 00:14:36;;;;;;;22.00;16.30;;;;;;;;;;5053581;28;20400;-68
2022/01/02 00:17:23;;;;;;;20.30;15.63;;;;;;;;;;5090809;27;20605;-68
2022/01/02 00:19:53;;;;;;;18.87;15.20;;;;;;;;;;5089493;28;20610;-69
2022/01/02 00:22:24;;;;;;;23.35;15.95;;;;;;;;;;5089280;28;20456;-67
2022/01/02 00:24:58;;;;;;;21.98;15.13;;;;;;;;;;5090794;28;20190;-68
2022/01/02 00:27:25;;;;;;;22.60;15.45;;;;;;;;;;5090677;28;20209;-68
2022/01/02 00:29:51;;;;;;;25.48;16.23;;;;;;;;;;5089237;28;20224;-69
2022/01/02 00:32:17;;;;;;;27.77;17.70;;;;;;;;;;5090519;28;20175;-69
2022/01/02 00:34:44;;;;;;;24.60;16.03;;;;;;;;;;5090614;28;20159;-69
2022/01/02 00:37:10;;;;;;;22.07;15.60;;;;;;;;;;5090393;28;20488;-69
2022/01/02 00:39:37;;;;;;;22.30;15.73;;;;;;;;;;5090352;28;20396;-69
2022/01/02 00:42:07;;;;;;;18.20;15.13;;;;;;;;;;5090395;28;20893;-69
2022/01/02 00:44:33;;;;;;;17.60;14.17;;;;;;;;;;5090218;28;20497;-68
2022/01/02 00:47:07;;;;;;;19.45;14.52;;;;;;;;;;5090303;28;20413;-69
2022/01/02 00:49:36;;;;;;;27.33;15.10;;;;;;;;;;5090317;28;20498;-68
2022/01/02 00:52:04;;;;;;;19.85;15.27;;;;;;;;;;5090201;28;20589;-69
2022/01/02 00:54:30;;;;;;;20.70;14.95;;;;;;;;;;5088924;28;20534;-70
2022/01/02 00:57:03;;;;;;;19.65;15.05;;;;;;;;;;5090065;28;20207;-69
2022/01/02 00:59:31;;;;;;;21.25;15.35;;;;;;;;;;5090259;28;20300;-68
2022/01/02 01:02:02;;;;;;;20.30;14.07;;;;;;;;;;5090044;28;20163;-69
2022/01/02 01:04:30;;;;;;;18.00;14.60;;;;;;;;;;5090111;28;20426;-68
2022/01/02 01:06:59;;;;;;;21.40;14.68;;;;;;;;;;5089953;28;20201;-68
2022/01/02 01:09:26;;;;;;;16.17;14.02;;;;;;;;;;5090060;28;20622;-68
2022/01/02 01:11:54;;;;;;;19.58;15.05;;;;;;;;;;5089880;28;20177;-68
2022/01/02 01:14:20;;;;;;;18.63;14.20;;;;;;;;;;5088518;28;20171;-67
2022/01/02 01:16:46;;;;;;;20.77;15.15;;;;;;;;;;5089591;28;20484;-67
2022/01/02 01:19:12;;;;;;;16.13;13.43;;;;;;;;;;5089845;28;20170;-68
2022/01/02 01:21:38;;;;;;;24.13;16.10;;;;;;;;;;5089877;28;20170;-67
2022/01/02 01:24:04;;;;;;;25.53;17.27;;;;;;;;;;5089689;28;20394;-68
2022/01/02 01:26:30;;;;;;;20.20;14.05;;;;;;;;;;5088544;28;20395;-67
2022/01/02 01:28:56;;;;;;;19.70;15.65;;;;;;;;;;5076027;28;20225;-67
2022/01/02 01:31:22;;;;;;;20.10;14.77;;;;;;;;;;5076010;28;20301;-67
2022/01/02 01:33:48;;;;;;;24.60;14.47;;;;;;;;;;5076092;28;20226;-68
2022/01/02 01:36:16;;;;;;;22.10;13.67;;;;;;;;;;5075943;28;20455;-67
2022/01/02 01:38:42;;;;;;;17.05;13.50;;;;;;;;;;5074653;28;20951;-68
2022/01/02 01:41:14;;;;;;;17.60;13.87;;;;;;;;;;5075934;28;20247;-68
2022/01/02 01:43:53;;;;;;;19.60;13.68;;;;;;;;;;5075884;28;21015;-68
2022/01/02 01:46:19;;;;;;;21.30;15.35;;;;;;;;;;5075820;28;20251;-68
2022/01/02 01:48:55;;;;;;;24.25;14.20;;;;;;;;;;5075807;28;20604;-68
2022/01/02 01:51:21;;;;;;;20.73;14.18;;;;;;;;;;5075978;28;20182;-67
2022/01/02 01:53:47;;;;;;;18.00;13.33;;;;;;;;;;5075646;28;20176;-68
2022/01/02 01:56:13;;;;;;;19.60;15.43;;;;;;;;;;5074315;28;20444;-67
2022/01/02 01:58:39;;;;;;;28.53;16.00;;;;;;;;;;5075618;28;20406;-68
2022/01/02 02:01:05;;;;;;;19.17;14.65;;;;;;;;;;5074235;28;20484;-68
2022/01/02 02:03:31;;;;;;;19.73;14.77;;;;;;;;;;5075497;28;20611;-68
2022/01/02 02:05:57;;;;;;;20.65;15.30;;;;;;;;;;5074363;28;20167;-68
2022/01/02 02:08:26;;;;;;;18.57;14.77;;;;;;;;;;5075447;28;20168;-68
2022/01/02 02:10:57;;;;;;;22.23;15.18;;;;;;;;;;5074044;28;20468;-68
2022/01/02 02:13:24;;;;;;;23.60;16.75;;;;;;;;;;5074048;28;20229;-68
2022/01/02 02:15:51;;;;;;;20.92;15.18;;;;;;;;;;5075083;28;20256;-67
2022/01/02 02:18:17;;;;;;;32.50;17.23;;;;;;;;;;5075239;28;20179;-67
2022/01/02 02:20:43;;;;;;;25.13;16.40;;;;;;;;;;5075233;28;20583;-68
2022/01/02 02:23:12;;;;;;;20.90;15.65;;;;;;;;;;5075169;28;20627;-68
2022/01/02 02:25:38;;;;;;;22.80;16.80;;;;;;;;;;5075128;28;20259;-68
2022/01/02 02:28:06;;;;;;;25.98;16.52;;;;;;;;;;5075045;28;20522;-67
2022/01/02 02:30:33;;;;;;;21.30;15.45;;;;;;;;;;5074956;28;20267;-67
2022/01/02 02:33:00;;;;;;;19.63;15.05;;;;;;;;;;5074968;28;20623;-68
2022/01/02 02:35:27;;;;;;;21.63;15.10;;;;;;;;;;5074816;28;20235;-68
2022/01/02 02:37:53;;;;;;;20.92;15.15;;;;;;;;;;5074842;28;20199;-68
2022/01/02 02:40:22;;;;;;;20.75;14.40;;;;;;;;;;5073791;28;20171;-68
2022/01/02 02:43:00;;;;;;;21.67;14.65;;;;;;;;;;5074770;28;20172;-68
2022/01/02 02:51:06;;;;;;;21.00;14.40;;;;;;;;;;5074867;28;20270;-68
2022/01/02 02:53:34;;;;;;;18.60;14.13;;;;;;;;;;5074496;28;20217;-68
2022/01/02 02:56:00;;;;;;;21.83;15.40;;;;;;;;;;5074420;28;20207;-67
2022/01/02 02:58:41;;;;;;;19.92;14.45;;;;;;;;;;5074382;28;20160;-67
2022/01/02 03:01:07;;;;;;;23.77;17.33;;;;;;;;;;5073428;28;20194;-67
2022/01/02 03:03:33;;;;;;;15.77;13.18;;;;;;;;;;5074423;28;20645;-67
2022/01/02 03:05:59;;;;;;;18.77;13.77;;;;;;;;;;5074287;28;20251;-67
2022/01/02 03:08:26;;;;;;;21.93;15.50;;;;;;;;;;5074266;28;20403;-67
2022/01/02 03:10:52;;;;;;;19.92;13.63;;;;;;;;;;5074107;28;20402;-67
2022/01/02 03:13:18;;;;;;;14.23;12.70;;;;;;;;;;5074182;28;20230;-67
2022/01/02 03:15:44;;;;;;;17.53;13.30;;;;;;;;;;5073833;28;20490;-67
2022/01/02 03:18:10;;;;;;;18.20;13.00;;;;;;;;;;5072758;28;20416;-67
2022/01/02 03:20:39;;;;;;;21.67;14.70;;;;;;;;;;5073955;28;20812;-67
2022/01/02 03:23:05;;;;;;;17.63;13.27;;;;;;;;;;5073997;28;20829;-67
2022/01/02 03:25:31;;;;;;;16.03;13.00;;;;;;;;;;5073964;28;20236;-69
2022/01/02 03:27:56;;;;;;;21.23;14.13;;;;;;;;;;5073893;28;20754;-67
2022/01/02 03:30:22;;;;;;;15.40;12.50;;;;;;;;;;5073732;28;20425;-67
2022/01/02 03:32:48;;;;;;;18.40;12.53;;;;;;;;;;5074084;28;20836;-67
2022/01/02 03:35:14;;;;;;;17.43;12.90;;;;;;;;;;5073619;28;20402;-67
2022/01/02 03:37:40;;;;;;;16.07;12.13;;;;;;;;;;5073700;28;20912;-67
2022/01/02 03:40:08;;;;;;;20.83;13.73;;;;;;;;;;5072376;28;20422;-67
2022/01/02 03:42:34;;;;;;;18.20;13.93;;;;;;;;;;5073593;28;20242;-67
2022/01/02 03:45:01;;;;;;;20.17;14.60;;;;;;;;;;5072337;28;20199;-67
2022/01/02 03:47:27;;;;;;;20.25;14.45;;;;;;;;;;5073661;28;20164;-68
2022/01/02 03:49:57;;;;;;;24.02;14.40;;;;;;;;;;5073336;28;20164;-68
2022/01/02 03:52:23;;;;;;;18.73;13.55;;;;;;;;;;5073555;28;20171;-68
2022/01/02 03:54:49;;;;;;;19.27;13.93;;;;;;;;;;5073527;28;20164;-68
2022/01/02 03:57:15;;;;;;;23.60;14.67;;;;;;;;;;5073424;28;20489;-67
2022/01/02 03:59:41;;;;;;;17.43;13.10;;;;;;;;;;5073410;28;20413;-68
2022/01/02 04:02:07;;;;;;;18.60;13.30;;;;;;;;;;5073442;28;20417;-67
2022/01/02 04:04:33;;;;;;;18.85;14.32;;;;;;;;;;5073650;28;20406;-67
2022/01/02 04:06:59;;;;;;;18.60;13.73;;;;;;;;;;5073354;28;20199;-67
2022/01/02 04:09:25;;;;;;;20.33;14.60;;;;;;;;;;5073280;28;20403;-67
2022/01/02 04:11:51;;;;;;;15.77;12.70;;;;;;;;;;5073355;28;20406;-67
2022/01/02 04:14:17;;;;;;;17.03;13.43;;;;;;;;;;5073347;28;20881;-67
2022/01/02 04:16:43;;;;;;;19.57;14.10;;;;;;;;;;5073127;28;20547;-67
2022/01/02 04:19:09;;;;;;;16.27;13.60;;;;;;;;;;5073160;28;20416;-68
2022/01/02 04:21:35;;;;;;;18.83;14.70;;;;;;;;;;5072012;28;20401;-67
2022/01/02 04:24:01;;;;;;;19.90;13.97;;;;;;;;;;5071927;28;20525;-67
2022/01/02 04:26:27;;;;;;;21.25;14.85;;;;;;;;;;5073212;28;20438;-67
2022/01/02 04:28:53;;;;;;;23.20;15.18;;;;;;;;;;5071904;28;20180;-67
2022/01/02 04:31:19;;;;;;;25.25;15.95;;;;;;;;;;5073081;28;20171;-67
2022/01/02 04:33:45;;;;;;;21.60;14.40;;;;;;;;;;5073171;28;20254;-68
2022/01/02 04:36:11;;;;;;;18.20;14.13;;;;;;;;;;5073049;28;20256;-67
2022/01/02 04:38:38;;;;;;;18.40;14.13;;;;;;;;;;5073141;28;20176;-67
2022/01/02 04:41:04;;;;;;;27.05;14.80;;;;;;;;;;5073348;28;20381;-67
2022/01/02 04:43:30;;;;;;;20.65;14.98;;;;;;;;;;5073134;28;20193;-67
2022/01/02 04:45:56;;;;;;;18.98;14.20;;;;;;;;;;5073005;28;20176;-67
2022/01/02 04:48:22;;;;;;;20.50;14.43;;;;;;;;;;5073007;28;20171;-67
2022/01/02 04:50:49;;;;;;;18.90;14.68;;;;;;;;;;5073035;28;20176;-67
2022/01/02 04:53:15;;;;;;;23.08;15.60;;;;;;;;;;5072972;28;20603;-67
2022/01/02 04:55:41;;;;;;;22.42;15.20;;;;;;;;;;5072845;28;20681;-67
2022/01/02 04:58:07;;;;;;;22.70;15.23;;;;;;;;;;5072961;28;20172;-67
2022/01/02 05:00:33;;;;;;;20.83;14.00;;;;;;;;;;5072830;28;20409;-67
2022/01/02 05:02:59;;;;;;;21.48;14.73;;;;;;;;;;5074802;28;20729;-67
2022/01/02 05:05:25;;;;;;;21.37;15.50;;;;;;;;;;5076558;28;20171;-68
2022/01/02 05:07:51;;;;;;;18.20;13.20;;;;;;;;;;5076605;28;20456;-67
2022/01/02 05:10:17;;;;;;;21.63;15.23;;;;;;;;;;5076563;28;20405;-67
2022/01/02 05:12:43;;;;;;;21.10;15.30;;;;;;;;;;5076493;28;20459;-68
2022/01/02 05:15:09;;;;;;;19.90;15.07;;;;;;;;;;5076143;28;20417;-67
2022/01/02 05:17:35;;;;;;;20.23;13.30;;;;;;;;;;5076672;28;20203;-67
2022/01/02 05:20:01;;;;;;;19.75;15.00;;;;;;;;;;5076378;28;20160;-67
2022/01/02 05:22:27;;;;;;;19.80;15.05;;;;;;;;;;5076353;28;20170;-67
2022/01/02 05:24:53;;;;;;;20.77;14.88;;;;;;;;;;5076264;28;20172;-67
2022/01/02 05:27:20;;;;;;;19.00;13.80;;;;;;;;;;5076214;28;20211;-67
2022/01/02 05:29:46;;;;;;;20.08;13.45;;;;;;;;;;5076169;28;20500;-67
2022/01/02 05:32:12;;;;;;;18.10;13.57;;;;;;;;;;5076127;28;20635;-67
2022/01/02 05:34:38;;;;;;;18.23;14.55;;;;;;;;;;5076158;28;20416;-68
2022/01/02 05:37:04;;;;;;;18.57;14.10;;;;;;;;;;5076035;28;20207;-67
2022/01/02 05:39:30;;;;;;;25.58;14.68;;;;;;;;;;5075995;28;20941;-68
2022/01/02 05:41:55;;;;;;;43.10;26.47;;;;;;;;;;5074803;28;20275;-67
2022/01/02 05:44:22;;;;;;;27.27;17.63;;;;;;;;;;5075843;28;20403;-67
2022/01/02 05:46:48;;;;;;;35.92;22.67;;;;;;;;;;5075996;28;20456;-67
2022/01/02 05:49:14;;;;;;;27.00;19.02;;;;;;;;;;5074771;28;20221;-67
2022/01/02 05:51:40;;;;;;;24.60;16.30;;;;;;;;;;5076279;28;20164;-68
2022/01/02 05:54:06;;;;;;;21.20;16.08;;;;;;;;;;5076071;28;20172;-68
2022/01/02 05:56:33;;;;;;;23.90;16.73;;;;;;;;;;5075853;28;20207;-68
2022/01/02 05:58:59;;;;;;;21.35;15.80;;;;;;;;;;5075842;28;20526;-68
2022/01/02 06:01:25;;;;;;;21.80;16.40;;;;;;;;;;5075849;28;20608;-68
2022/01/02 06:03:51;;;;;;;20.50;15.35;;;;;;;;;;5075543;28;20169;-68
2022/01/02 06:06:17;;;;;;;21.10;15.60;;;;;;;;;;5075512;28;20186;-68
2022/01/02 06:08:43;;;;;;;26.50;16.10;;;;;;;;;;5075357;28;20168;-68
2022/01/02 06:11:09;;;;;;;22.83;17.50;;;;;;;;;;5074104;28;20222;-68
2022/01/02 06:13:35;;;;;;;22.73;16.27;;;;;;;;;;5075231;28;20394;-68
2022/01/02 06:16:01;;;;;;;21.10;15.43;;;;;;;;;;5073893;28;20318;-68
2022/01/02 06:18:27;;;;;;;23.90;15.67;;;;;;;;;;5075290;28;20414;-68
2022/01/02 06:20:53;;;;;;;18.10;15.20;;;;;;;;;;5073856;28;20416;-68
2022/01/02 06:23:19;;;;;;;19.30;15.63;;;;;;;;;;5075159;28;20421;-68
2022/01/02 06:25:45;;;;;;;24.20;15.60;;;;;;;;;;5075116;28;20377;-68
2022/01/02 06:28:12;;;;;;;22.42;16.38;;;;;;;;;;5075051;28;20386;-68
2022/01/02 06:30:38;;;;;;;19.70;15.85;;;;;;;;;;5075051;28;20241;-68
2022/01/02 06:33:05;;;;;;;20.60;14.93;;;;;;;;;;5074946;28;20623;-68
2022/01/02 06:35:32;;;;;;;21.23;14.63;;;;;;;;;;5073972;28;20455;-68
2022/01/02 06:37:59;;;;;;;17.30;12.80;;;;;;;;;;5074943;28;20168;-68
2022/01/02 06:40:25;;;;;;;18.52;12.95;;;;;;;;;;5074805;28;20246;-68
2022/01/02 06:42:52;;;;;;;18.20;14.32;;;;;;;;;;5074817;28;20164;-68
2022/01/02 06:45:18;;;;;;;18.40;13.38;;;;;;;;;;5074743;28;20610;-67
2022/01/02 06:47:44;;;;;;;18.10;14.17;;;;;;;;;;5074754;28;20172;-67
2022/01/02 06:50:11;;;;;;;15.88;13.10;;;;;;;;;;5074725;28;20457;-67
2022/01/02 06:52:37;;;;;;;17.00;12.95;;;;;;;;;;5073272;28;20168;-67
2022/01/02 06:55:04;;;;;;;20.30;13.83;;;;;;;;;;5073199;28;20225;-67
2022/01/02 06:57:30;;;;;;;20.92;14.27;;;;;;;;;;5074534;28;20467;-67
2022/01/02 06:59:56;;;;;;;18.43;14.47;;;;;;;;;;5074370;28;20176;-68
2022/01/02 07:02:22;;;;;;;18.70;13.90;;;;;;;;;;5074352;28;20741;-67
2022/01/02 07:04:48;;;;;;;18.53;14.30;;;;;;;;;;5074271;28;20168;-67
2022/01/02 07:07:14;;;;;;;16.40;13.45;;;;;;;;;;5074221;28;20449;-67
2022/01/02 07:09:40;;;;;;;19.10;14.30;;;;;;;;;;5074231;28;20193;-67
2022/01/02 07:12:06;;;;;;;18.30;13.63;;;;;;;;;;5074187;28;20388;-67
2022/01/02 07:14:32;;;;;;;21.65;13.63;;;;;;;;;;5074184;28;20421;-67
2022/01/02 07:16:58;;;;;;;18.02;14.15;;;;;;;;;;5073879;28;20235;-67
2022/01/02 07:19:24;;;;;;;20.23;15.52;;;;;;;;;;5073970;28;20172;-68
2022/01/02 07:21:52;;;;;;;19.13;14.47;;;;;;;;;;5073994;28;20179;-67
2022/01/02 07:24:18;;;;;;;20.60;14.38;;;;;;;;;;5073941;28;20394;-67
2022/01/02 07:26:44;;;;;;;17.60;14.25;;;;;;;;;;5073472;28;20225;-67
2022/01/02 07:29:10;;;;;;;19.23;15.13;;;;;;;;;;5073822;28;20168;-67
2022/01/02 07:31:37;;;;;;;18.13;14.30;;;;;;;;;;5073849;28;20164;-67
2022/01/02 07:34:03;;;;;;;16.98;14.15;;;;;;;;;;5072513;28;20179;-67
2022/01/02 07:36:29;;;;;;;18.90;14.07;;;;;;;;;;5073986;28;20217;-67
2022/01/02 07:38:55;;;;;;;15.40;13.70;;;;;;;;;;5073783;28;20254;-67
2022/01/02 07:41:21;;;;;;;17.73;14.43;;;;;;;;;;5073603;28;20412;-67
2022/01/02 07:43:47;;;;;;;19.25;14.70;;;;;;;;;;5072197;28;20176;-68
2022/01/02 07:46:13;;;;;;;16.50;14.30;;;;;;;;;;5073669;28;20179;-67
2022/01/02 07:48:39;;;;;;;20.57;15.13;;;;;;;;;;5073594;28;20411;-67
2022/01/02 07:51:05;;;;;;;16.10;14.40;;;;;;;;;;5073590;28;20752;-68
2022/01/02 07:53:32;;;;;;;17.77;14.07;;;;;;;;;;5073581;28;20440;-67
2022/01/02 07:55:58;;;;;;;23.17;17.08;;;;;;;;;;5073534;28;20465;-68
2022/01/02 07:58:24;;;;;;;23.48;18.65;;;;;;;;;;5073502;28;20160;-68
2022/01/02 08:00:50;;;;;;;18.10;15.80;;;;;;;;;;5073489;28;20179;-67
2022/01/02 08:03:17;;;;;;;15.13;13.10;;;;;;;;;;5073432;28;20870;-67
2022/01/02 08:05:43;;;;;;;16.57;13.23;;;;;;;;;;5073324;28;20400;-67
2022/01/02 08:08:09;;;;;;;16.70;12.00;;;;;;;;;;5073393;28;20811;-68
2022/01/02 08:10:35;;;;;;;16.20;14.50;;;;;;;;;;5073014;28;20845;-67
2022/01/02 08:13:02;;;;;;;16.70;14.00;;;;;;;;;;5073188;28;20442;-67
2022/01/02 08:15:28;;;;;;;14.67;13.07;;;;;;;;;;5073035;28;20480;-67
2022/01/02 08:17:54;;;;;;;18.40;13.70;;;;;;;;;;5073222;28;20407;-67
2022/01/02 08:20:20;;;;;;;14.83;12.90;;;;;;;;;;5073241;28;20380;-68
2022/01/02 08:22:46;;;;;;;16.70;14.17;;;;;;;;;;5071915;28;20429;-68
2022/01/02 08:25:13;;;;;;;13.17;10.47;;;;;;;;;;5073263;28;20874;-68
2022/01/02 08:27:38;;;;;;;12.13;11.03;;;;;;;;;;5071848;28;20513;-68
2022/01/02 08:30:05;;;;;;;22.70;13.53;;;;;;;;;;5073041;28;20541;-69
2022/01/02 08:32:31;;;;;;;20.20;14.13;;;;;;;;;;5071755;28;20891;-68
2022/01/02 08:34:57;;;;;;;12.07;10.00;;;;;;;;;;5073161;28;20415;-68
2022/01/02 08:37:23;;;;;;;10.37;8.53;;;;;;;;;;5074114;28;20534;-68
2022/01/02 08:39:49;;;;;;;9.97;9.10;;;;;;;;;;5077192;28;20394;-69
2022/01/02 08:42:16;;;;;;;11.20;8.17;;;;;;;;;;5077031;28;20432;-68
2022/01/02 08:44:43;;;;;;;15.73;12.63;;;;;;;;;;5077080;28;20441;-68
2022/01/02 08:47:10;;;;;;;9.07;8.17;;;;;;;;;;5077093;28;20394;-67
2022/01/02 08:49:35;;;;;;;12.10;9.33;;;;;;;;;;5076774;28;20410;-68
2022/01/02 08:52:02;;;;;;;7.20;6.67;;;;;;;;;;5076892;28;20460;-68
2022/01/02 08:54:28;;;;;;;11.77;6.93;;;;;;;;;;5076971;28;20927;-67
2022/01/02 08:56:54;;;;;;;6.37;5.77;;;;;;;;;;5076756;28;20519;-70
2022/01/02 08:59:24;;;;;;;6.30;5.73;;;;;;;;;;5076969;28;20398;-69
2022/01/02 09:01:51;;;;;;;6.37;5.80;;;;;;;;;;5076817;28;20459;-68
2022/01/02 09:04:17;;;;;;;7.03;6.50;;;;;;;;;;5076715;28;20434;-68
2022/01/02 09:06:43;;;;;;;7.40;6.80;;;;;;;;;;5076574;28;20409;-68
2022/01/02 09:09:09;;;;;;;9.60;8.80;;;;;;;;;;5076577;28;20863;-70
2022/01/02 09:11:35;;;;;;;10.43;9.43;;;;;;;;;;5076421;28;20452;-74
2022/01/02 09:14:02;;;;;;;12.33;10.10;;;;;;;;;;5076511;28;20432;-70
2022/01/02 09:16:28;;;;;;;15.77;8.63;;;;;;;;;;5076054;28;20493;-74
2022/01/02 09:18:54;;;;;;;11.10;10.07;;;;;;;;;;5076232;28;20489;-72
2022/01/02 09:21:20;;;;;;;10.17;9.40;;;;;;;;;;5076296;28;20421;-74
2022/01/02 09:23:46;;;;;;;7.67;7.23;;;;;;;;;;5074980;28;20916;-73
2022/01/02 09:26:12;;;;;;;10.23;8.53;;;;;;;;;;5076159;28;20414;-72
2022/01/02 09:28:38;;;;;;;10.43;8.93;;;;;;;;;;5076223;28;20409;-77
2022/01/02 09:31:05;;;;;;;6.90;6.40;;;;;;;;;;5076169;28;20418;-86
2022/01/02 09:33:31;;;;;;;5.10;4.70;;;;;;;;;;5076656;28;20406;-88
2022/01/02 09:35:57;;;;;;;5.73;5.43;;;;;;;;;;5076074;28;20453;-82
2022/01/02 09:38:23;;;;;;;3.93;3.83;;;;;;;;;;5076053;28;20464;-76
2022/01/02 09:40:49;;;;;;;2.30;2.10;;;;;;;;;;5075864;28;20748;-72
2022/01/02 09:43:16;;;;;;;1.43;1.43;;;;;;;;;;5076169;28;20406;-73
2022/01/02 09:45:45;;;;;;;2.57;2.00;;;;;;;;;;5075877;28;20517;-73
2022/01/02 09:48:11;;;;;;;1.40;1.40;;;;;;;;;;5075609;28;20410;-69
2022/01/02 09:50:39;;;;;;;1.20;1.20;;;;;;;;;;5075812;28;20928;-72
2022/01/02 09:53:05;;;;;;;1.80;1.80;;;;;;;;;;5075707;28;20875;-69
2022/01/02 09:55:31;;;;;;;1.80;1.80;;;;;;;;;;5075650;28;20995;-74
2022/01/02 09:58:03;;;;;;;2.20;2.20;;;;;;;;;;5075585;28;20770;-67
2022/01/02 10:00:29;;;;;;;1.80;1.80;;;;;;;;;;5075567;28;20402;-69
2022/01/02 10:03:02;;;;;;;2.00;1.70;;;;;;;;;;5075527;28;20410;-68
2022/01/02 10:05:29;;;;;;;1.90;1.80;;;;;;;;;;5075547;28;20496;-72
2022/01/02 10:07:56;;;;;;;1.83;1.73;;;;;;;;;;5075426;28;20911;-73
2022/01/02 10:10:22;;;;;;;1.70;1.70;;;;;;;;;;5075422;28;20407;-72
2022/01/02 10:12:48;;;;;;;1.60;1.60;;;;;;;;;;5075400;28;20402;-70
2022/01/02 10:15:19;;;;;;;2.30;1.60;;;;;;;;;;5073746;28;20591;-69
2022/01/02 10:17:52;;;;;;;1.60;1.60;;;;;;;;;;5075240;28;20416;-68
2022/01/02 10:20:19;;;;;;;1.73;1.67;;;;;;;;;;5073914;28;20426;-66
2022/01/02 10:23:03;;;;;;;1.43;1.43;;;;;;;;;;5073836;28;20826;-67
2022/01/02 10:25:37;;;;;;;1.37;1.37;;;;;;;;;;5075197;28;20720;-68
2022/01/02 10:28:18;;;;;;;1.50;1.50;;;;;;;;;;5075096;28;20434;-76
2022/01/02 10:30:47;;;;;;;1.70;1.70;;;;;;;;;;5075151;28;20406;-79
2022/01/02 10:33:14;;;;;;;1.60;1.50;;;;;;;;;;5074995;28;20403;-78
2022/01/02 10:35:41;;;;;;;1.50;1.50;;;;;;;;;;5074900;28;20454;-78
2022/01/02 10:38:07;;;;;;;2.27;2.07;;;;;;;;;;5075165;28;20429;-76
2022/01/02 10:40:38;;;;;;;1.10;1.10;;;;;;;;;;5074879;28;20445;-83
2022/01/02 10:43:06;;;;;;;1.53;1.53;;;;;;;;;;5074727;28;20985;-76
2022/01/02 10:45:32;;;;;;;1.33;1.33;;;;;;;;;;5074686;28;20410;-78
2022/01/02 10:47:59;;;;;;;1.63;1.57;;;;;;;;;;5074732;28;20421;-76
2022/01/02 10:50:25;;;;;;;1.80;1.80;;;;;;;;;;5074593;28;20414;-79
2022/01/02 10:52:51;;;;;;;1.70;1.70;;;;;;;;;;5074733;28;20528;-76
2022/01/02 10:55:18;;;;;;;1.60;1.60;;;;;;;;;;5073462;28;20415;-80
2022/01/02 10:57:49;;;;;;;1.57;1.57;;;;;;;;;;5074441;28;20406;-81
2022/01/02 11:00:16;;;;;;;1.50;1.50;;;;;;;;;;5073647;28;20406;-80
2022/01/02 11:02:44;;;;;;;1.60;1.60;;;;;;;;;;5073103;28;20432;-77
2022/01/02 11:05:12;;;;;;;1.90;1.80;;;;;;;;;;5073085;28;20418;-78
2022/01/02 11:07:41;;;;;;;1.37;1.37;;;;;;;;;;5074332;28;20456;-75
2022/01/02 11:10:08;;;;;;;1.70;1.60;;;;;;;;;;5074232;28;20402;-76
2022/01/02 11:12:34;;;;;;;1.53;1.53;;;;;;;;;;5074114;28;20397;-80
2022/01/02 11:15:00;;;;;;;1.60;1.60;;;;;;;;;;5073936;28;20513;-79
2022/01/02 11:17:26;;;;;;;1.47;1.47;;;;;;;;;;5073947;28;20469;-77
2022/01/02 11:19:52;;;;;;;1.63;1.63;;;;;;;;;;5073967;28;20912;-80
2022/01/02 11:22:31;;;;;;;1.77;1.77;;;;;;;;;;5074043;28;20413;-80
2022/01/02 11:25:17;;;;;;;1.70;1.70;;;;;;;;;;5073990;28;20402;-80
2022/01/02 11:27:45;;;;;;;1.50;1.50;;;;;;;;;;5073956;28;20406;-81
2022/01/02 11:30:35;;;;;;;2.00;2.00;;;;;;;;;;5073804;28;20422;-82
2022/01/02 11:33:01;;;;;;;2.03;2.03;;;;;;;;;;5073810;28;20406;-80
2022/01/02 11:35:31;;;;;;;2.10;2.00;;;;;;;;;;5073718;28;20500;-75
2022/01/02 11:38:01;;;;;;;2.23;2.10;;;;;;;;;;5073996;28;20417;-72
2022/01/02 11:40:42;;;;;;;1.73;1.73;;;;;;;;;;5073668;28;20397;-70
2022/01/02 11:43:08;;;;;;;2.20;2.10;;;;;;;;;;5073695;28;20493;-69
2022/01/02 11:45:44;;;;;;;1.60;1.60;;;;;;;;;;5073908;28;20414;-66
2022/01/02 11:48:26;;;;;;;1.80;1.80;;;;;;;;;;5072379;28;20482;-72
2022/01/02 11:50:53;;;;;;;2.27;2.17;;;;;;;;;;5073586;28;20421;-71
2022/01/02 11:53:27;;;;;;;1.90;1.90;;;;;;;;;;5073661;28;20403;-76
2022/01/02 11:55:54;;;;;;;2.37;2.27;;;;;;;;;;5073576;28;20469;-76
2022/01/02 11:58:38;;;;;;;5.13;2.60;;;;;;;;;;5073594;28;20399;-83
2022/01/02 12:01:04;;;;;;;1.53;1.53;;;;;;;;;;5073508;28;20422;-80
2022/01/02 12:03:39;;;;;;;1.80;1.80;;;;;;;;;;5073434;28;20395;-76
2022/01/02 12:06:20;;;;;;;2.30;2.20;;;;;;;;;;5073448;28;20403;-77
2022/01/02 12:08:46;;;;;;;1.70;1.70;;;;;;;;;;5073490;28;20402;-72
2022/01/02 12:11:31;;;;;;;1.80;1.70;;;;;;;;;;5073169;28;20423;-74
2022/01/02 12:14:03;;;;;;;1.47;1.47;;;;;;;;;;5073296;28;20812;-70
2022/01/02 12:16:40;;;;;;;2.00;2.00;;;;;;;;;;5072997;28;20494;-75
2022/01/02 12:19:06;;;;;;;1.60;1.60;;;;;;;;;;5072016;28;20463;-74
2022/01/02 12:21:33;;;;;;;2.40;2.17;;;;;;;;;;5073089;28;20416;-73
2022/01/02 12:24:00;;;;;;;1.70;1.70;;;;;;;;;;5073153;28;20409;-73
2022/01/02 12:26:27;;;;;;;1.60;1.60;;;;;;;;;;5073251;28;20420;-76
2022/01/02 12:29:05;;;;;;;1.80;1.80;;;;;;;;;;5073378;28;20442;-75
2022/01/02 12:31:32;;;;;;;1.80;1.70;;;;;;;;;;5073086;28;20906;-77
2022/01/02 12:34:13;;;;;;;1.57;1.57;;;;;;;;;;5073158;28;20405;-70
2022/01/02 12:36:41;;;;;;;2.20;2.10;;;;;;;;;;5073300;28;20525;-73
2022/01/02 12:39:11;;;;;;;1.60;1.60;;;;;;;;;;5073397;28;20416;-74
2022/01/02 12:41:38;;;;;;;1.93;1.83;;;;;;;;;;5073586;28;20458;-68
2022/01/02 12:44:09;;;;;;;2.17;2.03;;;;;;;;;;5073112;28;20455;-68
2022/01/02 12:46:38;;;;;;;5.23;1.77;;;;;;;;;;5073099;28;20405;-67
2022/01/02 12:49:06;;;;;;;2.30;2.10;;;;;;;;;;5072992;28;20408;-70
2022/01/02 12:51:33;;;;;;;1.77;1.67;;;;;;;;;;5071715;28;20500;-70
2022/01/02 12:54:19;;;;;;;1.67;1.67;;;;;;;;;;5072961;28;20760;-68
2022/01/02 12:56:49;;;;;;;1.93;1.83;;;;;;;;;;5071471;28;20476;-67
2022/01/02 12:59:15;;;;;;;2.00;1.90;;;;;;;;;;5072844;28;20908;-67
2022/01/02 13:01:53;;;;;;;2.83;2.20;;;;;;;;;;5072814;28;20425;-67
2022/01/02 13:04:22;;;;;;;2.00;2.00;;;;;;;;;;5072805;28;20918;-68
2022/01/02 13:06:48;;;;;;;2.10;2.00;;;;;;;;;;5072744;28;20748;-68
2022/01/02 13:09:24;;;;;;;2.00;2.00;;;;;;;;;;5072754;28;20936;-67
2022/01/02 13:11:50;;;;;;;2.00;2.00;;;;;;;;;;5072952;28;20767;-68
2022/01/02 13:14:29;;;;;;;1.90;1.80;;;;;;;;;;5072682;28;20401;-68
2022/01/02 13:16:55;;;;;;;4.67;1.97;;;;;;;;;;5072455;28;20519;-68
2022/01/02 13:19:21;;;;;;;1.77;1.77;;;;;;;;;;5072723;28;20864;-69
2022/01/02 13:21:47;;;;;;;2.60;2.50;;;;;;;;;;5072664;28;20412;-68
2022/01/02 13:24:23;;;;;;;1.83;1.83;;;;;;;;;;5074827;28;20420;-69
2022/01/02 13:26:49;;;;;;;4.83;2.20;;;;;;;;;;5076280;28;20406;-69
2022/01/02 13:29:22;;;;;;;2.23;2.17;;;;;;;;;;5076406;28;20407;-67
2022/01/02 13:31:49;;;;;;;2.07;1.80;;;;;;;;;;5076121;28;20423;-69
2022/01/02 13:34:22;;;;;;;2.93;2.00;;;;;;;;;;5076104;28;20417;-67
2022/01/02 13:36:54;;;;;;;2.00;1.90;;;;;;;;;;5075910;28;20811;-67
2022/01/02 13:39:20;;;;;;;9.40;2.70;;;;;;;;;;5075996;28;20404;-68
2022/01/02 13:41:50;;;;;;;4.73;2.20;;;;;;;;;;5076221;28;20411;-67
2022/01/02 13:44:17;;;;;;;3.03;1.80;;;;;;;;;;5075969;28;20757;-69
2022/01/02 13:46:50;;;;;;;1.97;1.87;;;;;;;;;;5075819;28;20460;-66
2022/01/02 13:49:36;;;;;;;2.40;2.30;;;;;;;;;;5075802;28;20887;-66
2022/01/02 13:52:03;;;;;;;2.20;2.03;;;;;;;;;;5075665;28;20933;-64
2022/01/02 13:54:29;;;;;;;2.80;2.60;;;;;;;;;;5075800;28;20420;-66
2022/01/02 13:56:59;;;;;;;2.70;2.13;;;;;;;;;;5075675;28;20901;-65
2022/01/02 13:59:25;;;;;;;2.90;2.80;;;;;;;;;;5075927;28;20408;-65
2022/01/02 14:01:51;;;;;;;2.10;2.10;;;;;;;;;;5075555;28;20421;-66
2022/01/02 14:04:19;;;;;;;2.10;2.10;;;;;;;;;;5075642;28;20472;-67
2022/01/02 14:06:46;;;;;;;2.27;2.27;;;;;;;;;;5075537;28;20424;-66
2022/01/02 14:09:14;;;;;;;2.63;2.53;;;;;;;;;;5074191;28;20440;-66
2022/01/02 14:11:41;;;;;;;3.20;3.00;;;;;;;;;;5075652;28;20413;-66
2022/01/02 14:14:47;;;;;;;2.67;2.57;;;;;;;;;;5075376;28;20404;-67
2022/01/02 14:17:26;;;;;;;2.77;2.57;;;;;;;;;;5075127;28;20534;-73
2022/01/02 14:19:51;;;;;;;3.10;2.13;;;;;;;;;;5075403;28;20491;-74
2022/01/02 14:22:19;;;;;;;2.47;2.37;;;;;;;;;;5075272;28;20408;-72
2022/01/02 14:24:45;;;;;;;3.27;2.83;;;;;;;;;;5075362;28;20401;-73
2022/01/02 14:27:19;;;;;;;2.30;2.10;;;;;;;;;;5075369;28;20409;-72
2022/01/02 14:29:45;;;;;;;3.23;1.77;;;;;;;;;;5074916;28;20405;-73
2022/01/02 14:32:13;;;;;;;2.53;2.33;;;;;;;;;;5075083;28;20401;-71
2022/01/02 14:34:39;;;;;;;2.10;2.03;;;;;;;;;;5074904;28;20408;-72
2022/01/02 14:37:05;;;;;;;2.10;2.10;;;;;;;;;;5074799;28;20465;-72